sensor_id;sensor_type;location;lat;lon;timestamp;P1;durP1;ratioP1;P2;durP2;ratioP2
66595;SDS011;59017;49.252;18.838;2022-10-16T00:01:19;9.27;;;5.57;;
66595;SDS011;59017;49.252;18.838;2022-10-16T00:03:46;8.25;;;5.68;;
66595;SDS011;59017;49.252;18.838;2022-10-16T00:06:12;9.02;;;5.25;;
66595;SDS011;59017;49.252;18.838;2022-10-16T00:08:39;8.50;;;5.47;;
66595;SDS011;59017;49.252;18.838;2022-10-16T00:11:12;8.63;;;5.50;;
66595;SDS011;59017;49.252;18.838;2022-10-16T00:13:40;8.73;;;5.38;;
66595;SDS011;59017;49.252;18.838;2022-10-16T00:16:07;13.13;;;5.88;;
66595;SDS011;59017;49.252;18.838;2022-10-16T00:18:34;8.93;;;5.20;;
66595;SDS011;59017;49.252;18.838;2022-10-16T00:21:03;8.73;;;5.30;;
66595;SDS011;59017;49.252;18.838;2022-10-16T00:23:52;9.10;;;5.20;;
66595;SDS011;59017;49.252;18.838;2022-10-16T00:26:22;8.20;;;4.90;;
66595;SDS011;59017;49.252;18.838;2022-10-16T00:28:48;8.45;;;5.38;;
66595;SDS011;59017;49.252;18.838;2022-10-16T00:31:14;8.60;;;5.47;;
66595;SDS011;59017;49.252;18.838;2022-10-16T00:33:41;8.23;;;5.30;;
66595;SDS011;59017;49.252;18.838;2022-10-16T00:36:08;8.63;;;5.20;;
66595;SDS011;59017;49.252;18.838;2022-10-16T00:38:36;8.13;;;5.00;;
66595;SDS011;59017;49.252;18.838;2022-10-16T00:41:03;8.88;;;5.18;;
66595;SDS011;59017;49.252;18.838;2022-10-16T00:43:36;8.85;;;5.30;;
66595;SDS011;59017;49.252;18.838;2022-10-16T00:46:15;7.60;;;5.43;;
66595;SDS011;59017;49.252;18.838;2022-10-16T00:48:52;10.75;;;5.97;;
66595;SDS011;59017;49.252;18.838;2022-10-16T00:51:23;8.07;;;5.10;;
66595;SDS011;59017;49.252;18.838;2022-10-16T00:54:23;7.45;;;4.90;;
66595;SDS011;59017;49.252;18.838;2022-10-16T00:56:51;8.18;;;5.18;;
66595;SDS011;59017;49.252;18.838;2022-10-16T00:59:26;7.38;;;4.82;;
66595;SDS011;59017;49.252;18.838;2022-10-16T01:01:54;9.25;;;5.53;;
66595;SDS011;59017;49.252;18.838;2022-10-16T01:04:19;7.78;;;5.15;;
66595;SDS011;59017;49.252;18.838;2022-10-16T01:12:15;8.88;;;5.65;;
66595;SDS011;59017;49.252;18.838;2022-10-16T01:20:03;7.22;;;5.28;;
66595;SDS011;59017;49.252;18.838;2022-10-16T01:22:41;7.72;;;5.38;;
66595;SDS011;59017;49.252;18.838;2022-10-16T01:25:25;10.90;;;5.40;;
66595;SDS011;59017;49.252;18.838;2022-10-16T01:28:18;8.73;;;5.28;;
66595;SDS011;59017;49.252;18.838;2022-10-16T01:30:48;8.38;;;5.15;;
66595;SDS011;59017;49.252;18.838;2022-10-16T01:33:19;8.68;;;5.13;;
66595;SDS011;59017;49.252;18.838;2022-10-16T01:35:49;7.90;;;5.20;;
66595;SDS011;59017;49.252;18.838;2022-10-16T01:38:23;6.88;;;4.88;;
66595;SDS011;59017;49.252;18.838;2022-10-16T01:40:56;6.65;;;4.55;;
66595;SDS011;59017;49.252;18.838;2022-10-16T01:43:36;7.60;;;5.00;;
66595;SDS011;59017;49.252;18.838;2022-10-16T01:46:07;7.95;;;5.20;;
66595;SDS011;59017;49.252;18.838;2022-10-16T01:48:34;7.28;;;4.85;;
66595;SDS011;59017;49.252;18.838;2022-10-16T01:51:03;12.10;;;5.53;;
66595;SDS011;59017;49.252;18.838;2022-10-16T01:53:31;7.43;;;5.20;;
66595;SDS011;59017;49.252;18.838;2022-10-16T01:55:57;8.18;;;5.65;;
66595;SDS011;59017;49.252;18.838;2022-10-16T01:58:25;8.85;;;5.93;;
66595;SDS011;59017;49.252;18.838;2022-10-16T02:00:53;7.40;;;5.28;;
66595;SDS011;59017;49.252;18.838;2022-10-16T02:03:19;7.18;;;4.78;;
66595;SDS011;59017;49.252;18.838;2022-10-16T02:05:50;7.95;;;5.43;;
66595;SDS011;59017;49.252;18.838;2022-10-16T02:08:19;6.82;;;5.20;;
66595;SDS011;59017;49.252;18.838;2022-10-16T02:10:45;10.93;;;5.40;;
66595;SDS011;59017;49.252;18.838;2022-10-16T02:13:19;9.75;;;4.90;;
66595;SDS011;59017;49.252;18.838;2022-10-16T02:15:58;7.07;;;4.85;;
66595;SDS011;59017;49.252;18.838;2022-10-16T02:18:23;6.68;;;5.07;;
66595;SDS011;59017;49.252;18.838;2022-10-16T02:23:29;12.35;;;5.05;;
66595;SDS011;59017;49.252;18.838;2022-10-16T02:26:12;8.88;;;4.72;;
66595;SDS011;59017;49.252;18.838;2022-10-16T02:28:48;11.07;;;5.00;;
66595;SDS011;59017;49.252;18.838;2022-10-16T02:31:21;8.55;;;4.70;;
66595;SDS011;59017;49.252;18.838;2022-10-16T02:33:52;7.53;;;5.43;;
66595;SDS011;59017;49.252;18.838;2022-10-16T02:36:21;7.85;;;5.05;;
66595;SDS011;59017;49.252;18.838;2022-10-16T02:38:47;8.30;;;5.25;;
66595;SDS011;59017;49.252;18.838;2022-10-16T02:41:13;6.53;;;4.57;;
66595;SDS011;59017;49.252;18.838;2022-10-16T02:43:39;8.25;;;5.00;;
66595;SDS011;59017;49.252;18.838;2022-10-16T02:46:04;6.38;;;4.85;;
66595;SDS011;59017;49.252;18.838;2022-10-16T02:48:30;8.65;;;5.45;;
66595;SDS011;59017;49.252;18.838;2022-10-16T02:50:55;9.68;;;4.70;;
66595;SDS011;59017;49.252;18.838;2022-10-16T02:53:22;6.50;;;4.57;;
66595;SDS011;59017;49.252;18.838;2022-10-16T02:55:47;7.65;;;5.28;;
66595;SDS011;59017;49.252;18.838;2022-10-16T02:58:13;7.13;;;4.80;;
66595;SDS011;59017;49.252;18.838;2022-10-16T03:00:38;8.32;;;5.28;;
66595;SDS011;59017;49.252;18.838;2022-10-16T03:03:04;8.90;;;5.45;;
66595;SDS011;59017;49.252;18.838;2022-10-16T03:05:29;10.10;;;5.47;;
66595;SDS011;59017;49.252;18.838;2022-10-16T03:07:55;8.48;;;5.63;;
66595;SDS011;59017;49.252;18.838;2022-10-16T03:10:20;9.10;;;4.65;;
66595;SDS011;59017;49.252;18.838;2022-10-16T03:12:46;6.13;;;4.72;;
66595;SDS011;59017;49.252;18.838;2022-10-16T03:15:11;8.23;;;5.50;;
66595;SDS011;59017;49.252;18.838;2022-10-16T03:17:37;6.45;;;4.82;;
66595;SDS011;59017;49.252;18.838;2022-10-16T03:20:02;5.85;;;4.90;;
66595;SDS011;59017;49.252;18.838;2022-10-16T03:22:28;6.97;;;4.78;;
66595;SDS011;59017;49.252;18.838;2022-10-16T03:24:54;5.90;;;4.50;;
66595;SDS011;59017;49.252;18.838;2022-10-16T03:27:19;7.05;;;4.97;;
66595;SDS011;59017;49.252;18.838;2022-10-16T03:29:46;7.45;;;4.63;;
66595;SDS011;59017;49.252;18.838;2022-10-16T03:32:11;7.03;;;5.22;;
66595;SDS011;59017;49.252;18.838;2022-10-16T03:34:36;7.03;;;5.03;;
66595;SDS011;59017;49.252;18.838;2022-10-16T03:37:02;6.88;;;4.65;;
66595;SDS011;59017;49.252;18.838;2022-10-16T03:39:27;9.15;;;5.15;;
66595;SDS011;59017;49.252;18.838;2022-10-16T03:41:53;6.55;;;4.80;;
66595;SDS011;59017;49.252;18.838;2022-10-16T03:44:18;7.55;;;4.68;;
66595;SDS011;59017;49.252;18.838;2022-10-16T03:46:44;6.80;;;4.97;;
66595;SDS011;59017;49.252;18.838;2022-10-16T03:49:09;6.97;;;4.93;;
66595;SDS011;59017;49.252;18.838;2022-10-16T03:51:34;6.45;;;4.70;;
66595;SDS011;59017;49.252;18.838;2022-10-16T03:54:00;7.78;;;4.80;;
66595;SDS011;59017;49.252;18.838;2022-10-16T03:56:25;6.10;;;4.55;;
66595;SDS011;59017;49.252;18.838;2022-10-16T03:58:51;8.95;;;4.70;;
66595;SDS011;59017;49.252;18.838;2022-10-16T04:01:16;10.27;;;5.03;;
66595;SDS011;59017;49.252;18.838;2022-10-16T04:03:42;6.00;;;4.80;;
66595;SDS011;59017;49.252;18.838;2022-10-16T04:06:07;8.57;;;4.50;;
66595;SDS011;59017;49.252;18.838;2022-10-16T04:08:33;7.30;;;4.90;;
66595;SDS011;59017;49.252;18.838;2022-10-16T04:11:01;8.52;;;5.07;;
66595;SDS011;59017;49.252;18.838;2022-10-16T04:13:27;7.18;;;5.38;;
66595;SDS011;59017;49.252;18.838;2022-10-16T04:15:53;7.75;;;5.10;;
66595;SDS011;59017;49.252;18.838;2022-10-16T04:18:18;6.13;;;4.40;;
66595;SDS011;59017;49.252;18.838;2022-10-16T04:20:44;7.78;;;5.05;;
66595;SDS011;59017;49.252;18.838;2022-10-16T04:23:09;7.15;;;5.00;;
66595;SDS011;59017;49.252;18.838;2022-10-16T04:25:35;5.72;;;4.57;;
66595;SDS011;59017;49.252;18.838;2022-10-16T04:28:00;7.88;;;5.50;;
66595;SDS011;59017;49.252;18.838;2022-10-16T04:30:26;7.03;;;4.95;;
66595;SDS011;59017;49.252;18.838;2022-10-16T04:32:51;7.00;;;4.97;;
66595;SDS011;59017;49.252;18.838;2022-10-16T04:35:18;7.93;;;4.88;;
66595;SDS011;59017;49.252;18.838;2022-10-16T04:37:44;6.35;;;4.97;;
66595;SDS011;59017;49.252;18.838;2022-10-16T04:40:09;6.00;;;4.40;;
66595;SDS011;59017;49.252;18.838;2022-10-16T04:42:35;7.85;;;4.97;;
66595;SDS011;59017;49.252;18.838;2022-10-16T04:45:01;6.05;;;4.63;;
66595;SDS011;59017;49.252;18.838;2022-10-16T04:47:26;7.60;;;4.90;;
66595;SDS011;59017;49.252;18.838;2022-10-16T04:49:52;8.85;;;4.72;;
66595;SDS011;59017;49.252;18.838;2022-10-16T04:52:17;6.88;;;4.90;;
66595;SDS011;59017;49.252;18.838;2022-10-16T04:54:44;6.60;;;5.00;;
66595;SDS011;59017;49.252;18.838;2022-10-16T04:57:10;7.53;;;4.43;;
66595;SDS011;59017;49.252;18.838;2022-10-16T04:59:36;8.15;;;4.68;;
66595;SDS011;59017;49.252;18.838;2022-10-16T05:02:02;7.85;;;4.60;;
66595;SDS011;59017;49.252;18.838;2022-10-16T05:04:27;6.97;;;4.50;;
66595;SDS011;59017;49.252;18.838;2022-10-16T05:06:52;6.68;;;4.65;;
66595;SDS011;59017;49.252;18.838;2022-10-16T05:09:18;10.98;;;5.00;;
66595;SDS011;59017;49.252;18.838;2022-10-16T05:11:43;9.52;;;4.85;;
66595;SDS011;59017;49.252;18.838;2022-10-16T05:14:09;7.53;;;5.32;;
66595;SDS011;59017;49.252;18.838;2022-10-16T05:16:34;10.32;;;5.03;;
66595;SDS011;59017;49.252;18.838;2022-10-16T05:19:00;8.18;;;5.53;;
66595;SDS011;59017;49.252;18.838;2022-10-16T05:21:25;8.82;;;4.50;;
66595;SDS011;59017;49.252;18.838;2022-10-16T05:23:52;15.48;;;4.90;;
66595;SDS011;59017;49.252;18.838;2022-10-16T05:26:18;5.43;;;4.45;;
66595;SDS011;59017;49.252;18.838;2022-10-16T05:28:44;21.80;;;4.95;;
66595;SDS011;59017;49.252;18.838;2022-10-16T05:31:09;6.88;;;4.53;;
66595;SDS011;59017;49.252;18.838;2022-10-16T05:33:35;8.13;;;4.50;;
66595;SDS011;59017;49.252;18.838;2022-10-16T05:36:08;5.53;;;4.53;;
66595;SDS011;59017;49.252;18.838;2022-10-16T05:38:35;7.57;;;4.70;;
66595;SDS011;59017;49.252;18.838;2022-10-16T05:41:02;7.53;;;4.78;;
66595;SDS011;59017;49.252;18.838;2022-10-16T05:43:28;7.07;;;5.20;;
66595;SDS011;59017;49.252;18.838;2022-10-16T05:45:55;8.13;;;4.50;;
66595;SDS011;59017;49.252;18.838;2022-10-16T05:48:28;6.10;;;4.40;;
66595;SDS011;59017;49.252;18.838;2022-10-16T05:50:58;7.05;;;5.00;;
66595;SDS011;59017;49.252;18.838;2022-10-16T05:53:24;8.43;;;4.93;;
66595;SDS011;59017;49.252;18.838;2022-10-16T05:55:52;8.80;;;5.00;;
66595;SDS011;59017;49.252;18.838;2022-10-16T05:58:18;7.15;;;4.40;;
66595;SDS011;59017;49.252;18.838;2022-10-16T06:00:44;6.95;;;4.82;;
66595;SDS011;59017;49.252;18.838;2022-10-16T06:03:09;6.30;;;4.90;;
66595;SDS011;59017;49.252;18.838;2022-10-16T06:05:35;6.40;;;4.28;;
66595;SDS011;59017;49.252;18.838;2022-10-16T06:08:00;7.22;;;4.85;;
66595;SDS011;59017;49.252;18.838;2022-10-16T06:10:25;6.65;;;4.70;;
66595;SDS011;59017;49.252;18.838;2022-10-16T06:12:51;5.63;;;4.65;;
66595;SDS011;59017;49.252;18.838;2022-10-16T06:15:16;7.13;;;4.90;;
66595;SDS011;59017;49.252;18.838;2022-10-16T06:17:42;9.68;;;4.68;;
66595;SDS011;59017;49.252;18.838;2022-10-16T06:20:07;6.32;;;4.68;;
66595;SDS011;59017;49.252;18.838;2022-10-16T06:22:33;6.50;;;4.70;;
66595;SDS011;59017;49.252;18.838;2022-10-16T06:24:58;6.82;;;4.85;;
66595;SDS011;59017;49.252;18.838;2022-10-16T06:27:24;8.95;;;4.85;;
66595;SDS011;59017;49.252;18.838;2022-10-16T06:29:49;8.98;;;5.22;;
66595;SDS011;59017;49.252;18.838;2022-10-16T06:32:15;9.32;;;5.10;;
66595;SDS011;59017;49.252;18.838;2022-10-16T06:34:40;8.10;;;5.82;;
66595;SDS011;59017;49.252;18.838;2022-10-16T06:37:06;11.40;;;5.32;;
66595;SDS011;59017;49.252;18.838;2022-10-16T06:39:31;7.57;;;5.70;;
66595;SDS011;59017;49.252;18.838;2022-10-16T06:41:57;10.63;;;5.70;;
66595;SDS011;59017;49.252;18.838;2022-10-16T06:44:22;10.70;;;5.93;;
66595;SDS011;59017;49.252;18.838;2022-10-16T06:46:48;9.15;;;5.32;;
66595;SDS011;59017;49.252;18.838;2022-10-16T06:49:13;6.70;;;5.60;;
66595;SDS011;59017;49.252;18.838;2022-10-16T06:51:46;7.70;;;5.53;;
66595;SDS011;59017;49.252;18.838;2022-10-16T06:54:11;11.40;;;6.38;;
66595;SDS011;59017;49.252;18.838;2022-10-16T06:56:36;8.88;;;6.07;;
66595;SDS011;59017;49.252;18.838;2022-10-16T06:59:02;7.70;;;5.65;;
66595;SDS011;59017;49.252;18.838;2022-10-16T07:01:31;9.52;;;6.05;;
66595;SDS011;59017;49.252;18.838;2022-10-16T07:03:57;7.30;;;5.70;;
66595;SDS011;59017;49.252;18.838;2022-10-16T07:06:23;8.60;;;5.70;;
66595;SDS011;59017;49.252;18.838;2022-10-16T07:08:50;7.30;;;5.25;;
66595;SDS011;59017;49.252;18.838;2022-10-16T07:11:17;8.63;;;5.63;;
66595;SDS011;59017;49.252;18.838;2022-10-16T07:13:44;9.88;;;5.20;;
66595;SDS011;59017;49.252;18.838;2022-10-16T07:16:15;6.00;;;4.80;;
66595;SDS011;59017;49.252;18.838;2022-10-16T07:18:45;8.75;;;5.82;;
66595;SDS011;59017;49.252;18.838;2022-10-16T07:21:14;9.00;;;5.55;;
66595;SDS011;59017;49.252;18.838;2022-10-16T07:23:41;7.22;;;5.60;;
66595;SDS011;59017;49.252;18.838;2022-10-16T07:26:08;7.40;;;5.30;;
66595;SDS011;59017;49.252;18.838;2022-10-16T07:28:34;7.43;;;5.47;;
66595;SDS011;59017;49.252;18.838;2022-10-16T07:31:03;7.57;;;5.50;;
66595;SDS011;59017;49.252;18.838;2022-10-16T07:33:31;7.45;;;5.38;;
66595;SDS011;59017;49.252;18.838;2022-10-16T07:35:58;10.00;;;5.90;;
66595;SDS011;59017;49.252;18.838;2022-10-16T07:38:23;7.97;;;5.85;;
66595;SDS011;59017;49.252;18.838;2022-10-16T07:40:55;7.22;;;5.30;;
66595;SDS011;59017;49.252;18.838;2022-10-16T07:43:21;6.80;;;5.55;;
66595;SDS011;59017;49.252;18.838;2022-10-16T07:45:48;7.22;;;5.28;;
66595;SDS011;59017;49.252;18.838;2022-10-16T07:48:14;10.52;;;5.30;;
66595;SDS011;59017;49.252;18.838;2022-10-16T07:50:40;8.52;;;5.28;;
66595;SDS011;59017;49.252;18.838;2022-10-16T07:53:06;8.27;;;5.43;;
66595;SDS011;59017;49.252;18.838;2022-10-16T07:55:33;7.65;;;5.00;;
66595;SDS011;59017;49.252;18.838;2022-10-16T07:57:58;6.32;;;4.85;;
66595;SDS011;59017;49.252;18.838;2022-10-16T08:00:24;7.25;;;5.20;;
66595;SDS011;59017;49.252;18.838;2022-10-16T08:02:49;7.28;;;5.18;;
66595;SDS011;59017;49.252;18.838;2022-10-16T08:05:15;7.43;;;5.25;;
66595;SDS011;59017;49.252;18.838;2022-10-16T08:07:40;6.78;;;5.18;;
66595;SDS011;59017;49.252;18.838;2022-10-16T08:10:06;7.53;;;5.07;;
66595;SDS011;59017;49.252;18.838;2022-10-16T08:12:31;7.68;;;5.18;;
66595;SDS011;59017;49.252;18.838;2022-10-16T08:14:57;7.53;;;4.78;;
66595;SDS011;59017;49.252;18.838;2022-10-16T08:17:22;6.57;;;4.80;;
66595;SDS011;59017;49.252;18.838;2022-10-16T08:19:48;8.13;;;4.95;;
66595;SDS011;59017;49.252;18.838;2022-10-16T08:22:13;6.95;;;5.13;;
66595;SDS011;59017;49.252;18.838;2022-10-16T08:24:39;9.23;;;4.85;;
66595;SDS011;59017;49.252;18.838;2022-10-16T08:27:05;6.28;;;4.63;;
66595;SDS011;59017;49.252;18.838;2022-10-16T08:29:31;7.75;;;4.47;;
66595;SDS011;59017;49.252;18.838;2022-10-16T08:31:57;8.65;;;5.45;;
66595;SDS011;59017;49.252;18.838;2022-10-16T08:34:23;7.03;;;4.80;;
66595;SDS011;59017;49.252;18.838;2022-10-16T08:36:49;10.05;;;4.93;;
66595;SDS011;59017;49.252;18.838;2022-10-16T08:39:15;13.07;;;5.65;;
66595;SDS011;59017;49.252;18.838;2022-10-16T08:50:30;11.38;;;5.53;;
66595;SDS011;59017;49.252;18.838;2022-10-16T08:52:57;16.92;;;5.43;;
66595;SDS011;59017;49.252;18.838;2022-10-16T08:55:37;9.20;;;5.38;;
66595;SDS011;59017;49.252;18.838;2022-10-16T08:58:49;20.08;;;5.82;;
66595;SDS011;59017;49.252;18.838;2022-10-16T09:00:56;11.02;;;5.63;;
66595;SDS011;59017;49.252;18.838;2022-10-16T09:03:29;18.20;;;6.05;;
66595;SDS011;59017;49.252;18.838;2022-10-16T09:08:51;11.52;;;5.70;;
66595;SDS011;59017;49.252;18.838;2022-10-16T09:11:41;17.27;;;6.03;;
66595;SDS011;59017;49.252;18.838;2022-10-16T09:17:49;16.20;;;5.70;;
66595;SDS011;59017;49.252;18.838;2022-10-16T09:22:53;14.23;;;6.20;;
66595;SDS011;59017;49.252;18.838;2022-10-16T09:25:29;15.07;;;6.15;;
66595;SDS011;59017;49.252;18.838;2022-10-16T09:27:56;13.52;;;6.07;;
66595;SDS011;59017;49.252;18.838;2022-10-16T09:30:22;13.38;;;6.18;;
66595;SDS011;59017;49.252;18.838;2022-10-16T09:32:50;16.00;;;6.18;;
66595;SDS011;59017;49.252;18.838;2022-10-16T09:35:19;15.93;;;5.70;;
66595;SDS011;59017;49.252;18.838;2022-10-16T09:37:47;17.85;;;5.63;;
66595;SDS011;59017;49.252;18.838;2022-10-16T09:40:31;13.43;;;5.60;;
66595;SDS011;59017;49.252;18.838;2022-10-16T09:43:03;15.98;;;6.13;;
66595;SDS011;59017;49.252;18.838;2022-10-16T09:45:42;20.63;;;6.35;;
66595;SDS011;59017;49.252;18.838;2022-10-16T09:48:12;12.77;;;5.72;;
66595;SDS011;59017;49.252;18.838;2022-10-16T09:50:43;13.65;;;6.10;;
66595;SDS011;59017;49.252;18.838;2022-10-16T09:53:12;14.73;;;5.50;;
66595;SDS011;59017;49.252;18.838;2022-10-16T09:55:48;11.77;;;5.93;;
66595;SDS011;59017;49.252;18.838;2022-10-16T09:58:20;13.02;;;6.03;;
66595;SDS011;59017;49.252;18.838;2022-10-16T10:00:51;13.48;;;5.63;;
66595;SDS011;59017;49.252;18.838;2022-10-16T10:06:26;13.07;;;6.70;;
66595;SDS011;59017;49.252;18.838;2022-10-16T10:11:39;12.35;;;5.60;;
66595;SDS011;59017;49.252;18.838;2022-10-16T10:16:50;15.65;;;5.68;;
66595;SDS011;59017;49.252;18.838;2022-10-16T10:19:20;12.15;;;5.78;;
66595;SDS011;59017;49.252;18.838;2022-10-16T10:21:47;11.45;;;5.40;;
66595;SDS011;59017;49.252;18.838;2022-10-16T10:24:16;14.02;;;5.95;;
66595;SDS011;59017;49.252;18.838;2022-10-16T10:26:51;12.52;;;6.00;;
66595;SDS011;59017;49.252;18.838;2022-10-16T10:32:27;10.88;;;5.72;;
66595;SDS011;59017;49.252;18.838;2022-10-16T10:35:07;9.40;;;5.03;;
66595;SDS011;59017;49.252;18.838;2022-10-16T10:40:20;12.50;;;5.82;;
66595;SDS011;59017;49.252;18.838;2022-10-16T10:43:04;12.50;;;5.83;;
66595;SDS011;59017;49.252;18.838;2022-10-16T10:45:42;13.55;;;5.75;;
66595;SDS011;59017;49.252;18.838;2022-10-16T10:48:20;10.55;;;5.65;;
66595;SDS011;59017;49.252;18.838;2022-10-16T10:51:29;12.80;;;5.50;;
66595;SDS011;59017;49.252;18.838;2022-10-16T10:56:46;13.55;;;5.60;;
66595;SDS011;59017;49.252;18.838;2022-10-16T11:07:26;12.45;;;6.22;;
66595;SDS011;59017;49.252;18.838;2022-10-16T11:09:57;10.80;;;5.78;;
66595;SDS011;59017;49.252;18.838;2022-10-16T11:18:04;12.32;;;6.20;;
66595;SDS011;59017;49.252;18.838;2022-10-16T11:20:42;9.40;;;5.95;;
66595;SDS011;59017;49.252;18.838;2022-10-16T11:26:34;11.98;;;6.40;;
66595;SDS011;59017;49.252;18.838;2022-10-16T11:28:59;9.27;;;5.55;;
66595;SDS011;59017;49.252;18.838;2022-10-16T11:31:40;13.38;;;6.35;;
66595;SDS011;59017;49.252;18.838;2022-10-16T11:34:24;10.85;;;6.30;;
66595;SDS011;59017;49.252;18.838;2022-10-16T11:39:27;10.88;;;5.50;;
66595;SDS011;59017;49.252;18.838;2022-10-16T11:49:33;10.40;;;5.47;;
66595;SDS011;59017;49.252;18.838;2022-10-16T11:54:56;13.57;;;6.00;;
66595;SDS011;59017;49.252;18.838;2022-10-16T11:57:45;11.88;;;6.88;;
66595;SDS011;59017;49.252;18.838;2022-10-16T12:00:33;14.55;;;6.88;;
66595;SDS011;59017;49.252;18.838;2022-10-16T12:03:04;10.57;;;6.60;;
66595;SDS011;59017;49.252;18.838;2022-10-16T12:05:58;10.15;;;6.72;;
66595;SDS011;59017;49.252;18.838;2022-10-16T12:08:45;14.82;;;7.43;;
66595;SDS011;59017;49.252;18.838;2022-10-16T12:14:18;10.20;;;6.68;;
66595;SDS011;59017;49.252;18.838;2022-10-16T12:17:02;13.90;;;7.50;;
66595;SDS011;59017;49.252;18.838;2022-10-16T12:20:30;10.07;;;7.40;;
66595;SDS011;59017;49.252;18.838;2022-10-16T12:22:48;12.80;;;7.15;;
66595;SDS011;59017;49.252;18.838;2022-10-16T12:25:27;13.88;;;7.60;;
66595;SDS011;59017;49.252;18.838;2022-10-16T12:28:01;11.27;;;7.13;;
66595;SDS011;59017;49.252;18.838;2022-10-16T12:30:40;10.38;;;7.35;;
66595;SDS011;59017;49.252;18.838;2022-10-16T12:33:21;13.95;;;7.03;;
66595;SDS011;59017;49.252;18.838;2022-10-16T12:35:49;10.55;;;6.93;;
66595;SDS011;59017;49.252;18.838;2022-10-16T12:38:25;11.25;;;7.20;;
66595;SDS011;59017;49.252;18.838;2022-10-16T12:41:27;8.52;;;6.60;;
66595;SDS011;59017;49.252;18.838;2022-10-16T12:43:53;11.20;;;7.70;;
66595;SDS011;59017;49.252;18.838;2022-10-16T12:46:21;13.45;;;7.88;;
66595;SDS011;59017;49.252;18.838;2022-10-16T12:49:05;12.75;;;7.43;;
66595;SDS011;59017;49.252;18.838;2022-10-16T12:51:44;13.93;;;7.45;;
66595;SDS011;59017;49.252;18.838;2022-10-16T13:07:19;13.02;;;8.00;;
66595;SDS011;59017;49.252;18.838;2022-10-16T13:21:50;15.60;;;8.00;;
66595;SDS011;59017;49.252;18.838;2022-10-16T13:27:35;17.45;;;8.00;;
66595;SDS011;59017;49.252;18.838;2022-10-16T13:30:17;13.48;;;8.15;;
66595;SDS011;59017;49.252;18.838;2022-10-16T13:32:49;14.75;;;7.75;;
66595;SDS011;59017;49.252;18.838;2022-10-16T13:35:26;11.02;;;8.15;;
66595;SDS011;59017;49.252;18.838;2022-10-16T13:40:59;11.40;;;7.70;;
66595;SDS011;59017;49.252;18.838;2022-10-16T13:46:01;9.73;;;7.63;;
66595;SDS011;59017;49.252;18.838;2022-10-16T13:48:31;12.15;;;8.23;;
66595;SDS011;59017;49.252;18.838;2022-10-16T13:51:02;13.20;;;7.78;;
66595;SDS011;59017;49.252;18.838;2022-10-16T13:53:29;13.25;;;7.97;;
66595;SDS011;59017;49.252;18.838;2022-10-16T13:55:55;16.75;;;8.38;;
66595;SDS011;59017;49.252;18.838;2022-10-16T13:58:21;12.35;;;8.40;;
66595;SDS011;59017;49.252;18.838;2022-10-16T14:03:47;13.05;;;8.10;;
66595;SDS011;59017;49.252;18.838;2022-10-16T14:06:15;12.13;;;8.23;;
66595;SDS011;59017;49.252;18.838;2022-10-16T14:08:44;10.10;;;7.90;;
66595;SDS011;59017;49.252;18.838;2022-10-16T14:11:19;9.88;;;7.53;;
66595;SDS011;59017;49.252;18.838;2022-10-16T14:13:47;12.95;;;7.80;;
66595;SDS011;59017;49.252;18.838;2022-10-16T14:16:16;13.75;;;7.22;;
66595;SDS011;59017;49.252;18.838;2022-10-16T14:18:57;11.32;;;7.43;;
66595;SDS011;59017;49.252;18.838;2022-10-16T14:21:26;9.52;;;7.03;;
66595;SDS011;59017;49.252;18.838;2022-10-16T14:23:52;10.23;;;7.32;;
66595;SDS011;59017;49.252;18.838;2022-10-16T14:26:19;13.18;;;8.15;;
66595;SDS011;59017;49.252;18.838;2022-10-16T14:28:47;14.20;;;8.10;;
66595;SDS011;59017;49.252;18.838;2022-10-16T14:33:58;10.73;;;7.63;;
66595;SDS011;59017;49.252;18.838;2022-10-16T14:36:25;11.38;;;7.18;;
66595;SDS011;59017;49.252;18.838;2022-10-16T14:39:02;12.48;;;7.85;;
66595;SDS011;59017;49.252;18.838;2022-10-16T14:41:31;16.55;;;7.78;;
66595;SDS011;59017;49.252;18.838;2022-10-16T14:44:03;13.23;;;7.22;;
66595;SDS011;59017;49.252;18.838;2022-10-16T14:46:36;11.73;;;7.35;;
66595;SDS011;59017;49.252;18.838;2022-10-16T14:54:02;10.98;;;7.85;;
66595;SDS011;59017;49.252;18.838;2022-10-16T14:56:34;11.98;;;7.47;;
66595;SDS011;59017;49.252;18.838;2022-10-16T14:59:10;11.07;;;7.18;;
66595;SDS011;59017;49.252;18.838;2022-10-16T15:01:43;10.18;;;7.30;;
66595;SDS011;59017;49.252;18.838;2022-10-16T15:04:11;10.93;;;7.00;;
66595;SDS011;59017;49.252;18.838;2022-10-16T15:06:37;11.85;;;7.65;;
66595;SDS011;59017;49.252;18.838;2022-10-16T15:09:03;13.15;;;7.15;;
66595;SDS011;59017;49.252;18.838;2022-10-16T15:11:29;11.68;;;7.30;;
66595;SDS011;59017;49.252;18.838;2022-10-16T15:13:57;10.07;;;6.95;;
66595;SDS011;59017;49.252;18.838;2022-10-16T15:16:22;11.30;;;8.02;;
66595;SDS011;59017;49.252;18.838;2022-10-16T15:18:48;12.18;;;8.88;;
66595;SDS011;59017;49.252;18.838;2022-10-16T15:23:52;32.20;;;21.40;;
66595;SDS011;59017;49.252;18.838;2022-10-16T15:26:17;28.08;;;24.25;;
66595;SDS011;59017;49.252;18.838;2022-10-16T15:28:43;43.30;;;34.83;;
66595;SDS011;59017;49.252;18.838;2022-10-16T15:31:09;36.80;;;31.35;;
66595;SDS011;59017;49.252;18.838;2022-10-16T15:33:34;38.78;;;32.17;;
66595;SDS011;59017;49.252;18.838;2022-10-16T15:36:03;31.48;;;26.27;;
66595;SDS011;59017;49.252;18.838;2022-10-16T15:38:29;31.70;;;25.63;;
66595;SDS011;59017;49.252;18.838;2022-10-16T15:40:55;32.17;;;25.58;;
66595;SDS011;59017;49.252;18.838;2022-10-16T15:43:21;37.13;;;26.00;;
66595;SDS011;59017;49.252;18.838;2022-10-16T15:48:25;28.77;;;24.58;;
66595;SDS011;59017;49.252;18.838;2022-10-16T15:50:50;30.55;;;23.50;;
66595;SDS011;59017;49.252;18.838;2022-10-16T15:53:16;29.00;;;22.42;;
66595;SDS011;59017;49.252;18.838;2022-10-16T15:55:41;27.63;;;23.10;;
66595;SDS011;59017;49.252;18.838;2022-10-16T15:58:07;25.23;;;21.63;;
66595;SDS011;59017;49.252;18.838;2022-10-16T16:00:32;28.88;;;21.67;;
66595;SDS011;59017;49.252;18.838;2022-10-16T16:02:58;26.60;;;21.02;;
66595;SDS011;59017;49.252;18.838;2022-10-16T16:05:23;23.65;;;19.45;;
66595;SDS011;59017;49.252;18.838;2022-10-16T16:07:50;22.88;;;19.25;;
66595;SDS011;59017;49.252;18.838;2022-10-16T16:10:16;27.17;;;18.90;;
66595;SDS011;59017;49.252;18.838;2022-10-16T16:12:42;29.40;;;17.85;;
66595;SDS011;59017;49.252;18.838;2022-10-16T16:15:08;24.02;;;17.30;;
66595;SDS011;59017;49.252;18.838;2022-10-16T16:17:35;20.60;;;16.13;;
66595;SDS011;59017;49.252;18.838;2022-10-16T16:20:01;20.75;;;16.02;;
66595;SDS011;59017;49.252;18.838;2022-10-16T16:22:30;20.73;;;15.55;;
66595;SDS011;59017;49.252;18.838;2022-10-16T16:24:55;18.52;;;15.25;;
66595;SDS011;59017;49.252;18.838;2022-10-16T16:27:21;19.40;;;14.98;;
66595;SDS011;59017;49.252;18.838;2022-10-16T16:29:47;19.98;;;14.52;;
66595;SDS011;59017;49.252;18.838;2022-10-16T16:32:12;18.23;;;14.23;;
66595;SDS011;59017;49.252;18.838;2022-10-16T16:34:44;18.23;;;13.18;;
66595;SDS011;59017;49.252;18.838;2022-10-16T16:37:09;19.58;;;13.77;;
66595;SDS011;59017;49.252;18.838;2022-10-16T16:39:36;18.58;;;12.95;;
66595;SDS011;59017;49.252;18.838;2022-10-16T16:42:02;20.33;;;13.50;;
66595;SDS011;59017;49.252;18.838;2022-10-16T16:44:29;18.75;;;12.82;;
66595;SDS011;59017;49.252;18.838;2022-10-16T16:46:54;15.48;;;11.60;;
66595;SDS011;59017;49.252;18.838;2022-10-16T16:49:20;19.52;;;12.52;;
66595;SDS011;59017;49.252;18.838;2022-10-16T16:51:46;17.60;;;12.85;;